sensor_id;sensor_type;location;lat;lon;timestamp;pressure;altitude;pressure_sealevel;temperature;humidity
14790;BME280;7486;51.010;10.366;2023-01-26T00:00:53;98941.03;;;-4.24;86.13
14790;BME280;7486;51.010;10.366;2023-01-26T00:03:21;98966.13;;;-3.98;86.18
14790;BME280;7486;51.010;10.366;2023-01-26T00:05:47;98952.66;;;-4.17;85.35
14790;BME280;7486;51.010;10.366;2023-01-26T00:08:14;98968.75;;;-4.12;86.70
14790;BME280;7486;51.010;10.366;2023-01-26T00:10:41;98963.56;;;-4.12;86.67
14790;BME280;7486;51.010;10.366;2023-01-26T00:13:09;98967.78;;;-3.97;86.33
14790;BME280;7486;51.010;10.366;2023-01-26T00:15:36;98951.97;;;-3.92;86.19
14790;BME280;7486;51.010;10.366;2023-01-26T00:18:03;98893.84;;;-4.28;85.87
14790;BME280;7486;51.010;10.366;2023-01-26T00:20:29;98951.13;;;-3.93;85.11
14790;BME280;7486;51.010;10.366;2023-01-26T00:22:56;98954.91;;;-4.11;85.45
14790;BME280;7486;51.010;10.366;2023-01-26T00:25:23;98960.16;;;-3.86;85.81
14790;BME280;7486;51.010;10.366;2023-01-26T00:27:49;98960.41;;;-3.76;85.32
14790;BME280;7486;51.010;10.366;2023-01-26T00:30:16;98945.28;;;-3.82;85.26
14790;BME280;7486;51.010;10.366;2023-01-26T00:32:43;98954.88;;;-3.58;84.74
14790;BME280;7486;51.010;10.366;2023-01-26T00:35:10;98955.31;;;-3.51;84.32
14790;BME280;7486;51.010;10.366;2023-01-26T00:37:40;98951.13;;;-3.66;84.40
14790;BME280;7486;51.010;10.366;2023-01-26T00:40:08;98953.22;;;-3.59;84.13
14790;BME280;7486;51.010;10.366;2023-01-26T00:42:36;98944.53;;;-3.58;84.45
14790;BME280;7486;51.010;10.366;2023-01-26T00:45:03;98942.19;;;-3.75;84.11
14790;BME280;7486;51.010;10.366;2023-01-26T00:47:30;98939.69;;;-3.76;84.76
14790;BME280;7486;51.010;10.366;2023-01-26T00:49:57;98930.97;;;-3.88;84.75
14790;BME280;7486;51.010;10.366;2023-01-26T00:52:27;98926.44;;;-3.84;84.78
14790;BME280;7486;51.010;10.366;2023-01-26T00:54:55;98937.53;;;-4.23;85.12
14790;BME280;7486;51.010;10.366;2023-01-26T00:57:22;98923.84;;;-4.11;86.13
14790;BME280;7486;51.010;10.366;2023-01-26T00:59:49;98899.56;;;-3.96;85.26
14790;BME280;7486;51.010;10.366;2023-01-26T01:02:16;98918.94;;;-3.89;84.67
14790;BME280;7486;51.010;10.366;2023-01-26T01:04:42;98936.41;;;-3.66;84.95
14790;BME280;7486;51.010;10.366;2023-01-26T01:07:09;98908.69;;;-3.64;84.46
14790;BME280;7486;51.010;10.366;2023-01-26T01:09:36;98934.59;;;-3.51;83.92
14790;BME280;7486;51.010;10.366;2023-01-26T01:12:04;98920.63;;;-3.49;83.45
14790;BME280;7486;51.010;10.366;2023-01-26T01:14:31;98920.69;;;-3.63;82.77
14790;BME280;7486;51.010;10.366;2023-01-26T01:16:58;98937.44;;;-3.68;82.74
14790;BME280;7486;51.010;10.366;2023-01-26T01:19:24;98934.94;;;-3.70;83.50
14790;BME280;7486;51.010;10.366;2023-01-26T01:21:51;98936.22;;;-3.63;83.34
14790;BME280;7486;51.010;10.366;2023-01-26T01:24:18;98936.00;;;-3.72;83.70
14790;BME280;7486;51.010;10.366;2023-01-26T01:26:45;98928.63;;;-3.78;83.46
14790;BME280;7486;51.010;10.366;2023-01-26T01:29:12;98933.06;;;-3.54;83.85
14790;BME280;7486;51.010;10.366;2023-01-26T01:31:40;98930.13;;;-3.62;83.38
14790;BME280;7486;51.010;10.366;2023-01-26T01:34:06;98879.16;;;-4.01;83.50
14790;BME280;7486;51.010;10.366;2023-01-26T01:36:33;98887.56;;;-3.97;83.58
14790;BME280;7486;51.010;10.366;2023-01-26T01:39:00;98932.91;;;-3.65;84.06
14790;BME280;7486;51.010;10.366;2023-01-26T01:41:27;98926.47;;;-3.72;84.20
14790;BME280;7486;51.010;10.366;2023-01-26T01:44:30;98932.56;;;-3.73;84.73
14790;BME280;7486;51.010;10.366;2023-01-26T01:47:02;98936.72;;;-3.97;83.76
14790;BME280;7486;51.010;10.366;2023-01-26T01:49:37;98932.50;;;-3.98;84.68
14790;BME280;7486;51.010;10.366;2023-01-26T01:52:10;98927.94;;;-3.94;84.98
14790;BME280;7486;51.010;10.366;2023-01-26T01:54:45;98922.22;;;-4.00;84.25
14790;BME280;7486;51.010;10.366;2023-01-26T01:57:21;98919.81;;;-4.29;84.67
14790;BME280;7486;51.010;10.366;2023-01-26T01:59:54;98913.16;;;-4.19;85.25
14790;BME280;7486;51.010;10.366;2023-01-26T02:02:23;98879.47;;;-4.32;85.35
14790;BME280;7486;51.010;10.366;2023-01-26T02:04:53;98898.50;;;-4.06;85.62
14790;BME280;7486;51.010;10.366;2023-01-26T02:07:23;98895.38;;;-3.84;85.42
14790;BME280;7486;51.010;10.366;2023-01-26T02:09:49;98900.06;;;-3.77;84.54
14790;BME280;7486;51.010;10.366;2023-01-26T02:12:19;98898.44;;;-3.53;84.88
14790;BME280;7486;51.010;10.366;2023-01-26T02:14:49;98880.22;;;-3.51;83.15
14790;BME280;7486;51.010;10.366;2023-01-26T02:17:17;98833.91;;;-3.68;82.66
14790;BME280;7486;51.010;10.366;2023-01-26T02:19:53;98885.31;;;-3.37;82.70
14790;BME280;7486;51.010;10.366;2023-01-26T02:25:46;98884.97;;;-3.70;81.60
14790;BME280;7486;51.010;10.366;2023-01-26T02:28:16;98822.84;;;-4.10;82.27
14790;BME280;7486;51.010;10.366;2023-01-26T02:30:44;98873.53;;;-4.07;83.43
14790;BME280;7486;51.010;10.366;2023-01-26T02:33:19;98868.38;;;-3.80;83.49
14790;BME280;7486;51.010;10.366;2023-01-26T02:35:47;98862.66;;;-3.85;83.38
14790;BME280;7486;51.010;10.366;2023-01-26T02:38:15;98858.53;;;-3.75;83.17
14790;BME280;7486;51.010;10.366;2023-01-26T02:40:53;98860.13;;;-4.00;82.97
14790;BME280;7486;51.010;10.366;2023-01-26T02:43:23;98851.47;;;-3.86;82.91
14790;BME280;7486;51.010;10.366;2023-01-26T02:45:51;98843.06;;;-3.89;83.36
14790;BME280;7486;51.010;10.366;2023-01-26T02:48:20;98850.81;;;-4.02;83.62
14790;BME280;7486;51.010;10.366;2023-01-26T02:50:47;98856.66;;;-3.86;82.84
14790;BME280;7486;51.010;10.366;2023-01-26T02:53:13;98862.00;;;-4.02;82.69
14790;BME280;7486;51.010;10.366;2023-01-26T02:55:40;98847.75;;;-3.82;83.25
14790;BME280;7486;51.010;10.366;2023-01-26T02:58:07;98847.75;;;-3.82;82.88
14790;BME280;7486;51.010;10.366;2023-01-26T03:00:35;98794.50;;;-4.11;82.60
14790;BME280;7486;51.010;10.366;2023-01-26T03:03:23;98853.50;;;-3.64;82.43
14790;BME280;7486;51.010;10.366;2023-01-26T03:05:50;98851.53;;;-3.61;81.63
14790;BME280;7486;51.010;10.366;2023-01-26T03:08:17;98836.19;;;-3.64;81.56
14790;BME280;7486;51.010;10.366;2023-01-26T03:10:44;98840.91;;;-3.83;81.25
14790;BME280;7486;51.010;10.366;2023-01-26T03:13:11;98804.47;;;-3.92;81.86
14790;BME280;7486;51.010;10.366;2023-01-26T03:15:38;98830.50;;;-4.08;81.64
14790;BME280;7486;51.010;10.366;2023-01-26T03:18:07;98822.97;;;-4.11;82.37
14790;BME280;7486;51.010;10.366;2023-01-26T03:20:34;98822.41;;;-4.16;82.80
14790;BME280;7486;51.010;10.366;2023-01-26T03:23:01;98816.31;;;-4.15;82.50
14790;BME280;7486;51.010;10.366;2023-01-26T03:25:28;98813.75;;;-4.03;82.19
14790;BME280;7486;51.010;10.366;2023-01-26T03:27:57;98824.72;;;-3.99;81.72
14790;BME280;7486;51.010;10.366;2023-01-26T03:30:24;98817.91;;;-4.00;81.51
14790;BME280;7486;51.010;10.366;2023-01-26T03:32:51;98823.00;;;-3.86;81.46
14790;BME280;7486;51.010;10.366;2023-01-26T03:35:18;98818.50;;;-4.09;81.92
14790;BME280;7486;51.010;10.366;2023-01-26T03:37:44;98808.50;;;-4.28;81.03
14790;BME280;7486;51.010;10.366;2023-01-26T03:40:20;98814.38;;;-3.99;81.58
14790;BME280;7486;51.010;10.366;2023-01-26T03:42:48;98814.59;;;-3.89;81.38
14790;BME280;7486;51.010;10.366;2023-01-26T03:45:15;98817.53;;;-3.69;81.30
14790;BME280;7486;51.010;10.366;2023-01-26T03:47:42;98804.75;;;-3.97;80.61
14790;BME280;7486;51.010;10.366;2023-01-26T03:50:09;98816.25;;;-4.01;81.08
14790;BME280;7486;51.010;10.366;2023-01-26T03:52:36;98816.34;;;-3.90;80.94
14790;BME280;7486;51.010;10.366;2023-01-26T03:55:04;98822.91;;;-3.84;81.80
14790;BME280;7486;51.010;10.366;2023-01-26T03:57:31;98805.09;;;-3.89;81.36
14790;BME280;7486;51.010;10.366;2023-01-26T03:59:57;98820.88;;;-3.67;81.18
14790;BME280;7486;51.010;10.366;2023-01-26T04:02:25;98817.94;;;-3.62;80.92
14790;BME280;7486;51.010;10.366;2023-01-26T04:04:52;98815.41;;;-4.02;80.67
14790;BME280;7486;51.010;10.366;2023-01-26T04:07:24;98821.56;;;-3.77;81.30
14790;BME280;7486;51.010;10.366;2023-01-26T04:09:50;98798.16;;;-3.88;80.65
14790;BME280;7486;51.010;10.366;2023-01-26T04:12:17;98800.31;;;-3.95;81.30
14790;BME280;7486;51.010;10.366;2023-01-26T04:14:56;98803.97;;;-3.85;80.67
14790;BME280;7486;51.010;10.366;2023-01-26T04:17:25;98816.69;;;-3.82;80.44
14790;BME280;7486;51.010;10.366;2023-01-26T04:19:51;98815.22;;;-3.86;80.73
14790;BME280;7486;51.010;10.366;2023-01-26T04:22:18;98810.19;;;-3.87;81.05
14790;BME280;7486;51.010;10.366;2023-01-26T04:24:46;98804.16;;;-3.88;80.98
14790;BME280;7486;51.010;10.366;2023-01-26T04:27:14;98802.16;;;-3.97;80.98
14790;BME280;7486;51.010;10.366;2023-01-26T04:29:40;98750.91;;;-4.17;81.66
14790;BME280;7486;51.010;10.366;2023-01-26T04:32:07;98769.34;;;-4.09;81.01
14790;BME280;7486;51.010;10.366;2023-01-26T04:34:34;98798.03;;;-4.00;80.91
14790;BME280;7486;51.010;10.366;2023-01-26T04:37:07;98790.59;;;-3.91;80.53
14790;BME280;7486;51.010;10.366;2023-01-26T04:39:42;98796.28;;;-4.38;80.66
14790;BME280;7486;51.010;10.366;2023-01-26T04:42:09;98796.13;;;-4.23;81.00
14790;BME280;7486;51.010;10.366;2023-01-26T04:44:36;98774.25;;;-4.58;81.44
14790;BME280;7486;51.010;10.366;2023-01-26T04:47:03;98788.34;;;-4.23;81.46
14790;BME280;7486;51.010;10.366;2023-01-26T04:49:31;98787.44;;;-4.09;81.38
14790;BME280;7486;51.010;10.366;2023-01-26T04:51:58;98778.84;;;-4.22;81.59
14790;BME280;7486;51.010;10.366;2023-01-26T04:54:25;98787.78;;;-4.01;81.01
14790;BME280;7486;51.010;10.366;2023-01-26T04:56:52;98790.34;;;-4.14;81.34
14790;BME280;7486;51.010;10.366;2023-01-26T04:59:19;98784.31;;;-4.14;81.14
14790;BME280;7486;51.010;10.366;2023-01-26T05:01:46;98783.19;;;-4.10;81.90
14790;BME280;7486;51.010;10.366;2023-01-26T05:04:13;98778.50;;;-3.91;80.81
14790;BME280;7486;51.010;10.366;2023-01-26T05:06:44;98777.75;;;-3.93;80.24
14790;BME280;7486;51.010;10.366;2023-01-26T05:09:10;98770.94;;;-3.94;80.71
14790;BME280;7486;51.010;10.366;2023-01-26T05:11:39;98784.63;;;-3.67;80.71
14790;BME280;7486;51.010;10.366;2023-01-26T05:14:24;98791.66;;;-3.81;79.64
14790;BME280;7486;51.010;10.366;2023-01-26T05:17:11;98761.09;;;-4.02;78.32
14790;BME280;7486;51.010;10.366;2023-01-26T05:19:38;98769.00;;;-4.17;79.92
14790;BME280;7486;51.010;10.366;2023-01-26T05:22:25;98790.03;;;-4.09;80.67
14790;BME280;7486;51.010;10.366;2023-01-26T05:25:31;98794.53;;;-3.99;80.58
14790;BME280;7486;51.010;10.366;2023-01-26T05:28:09;98787.88;;;-4.03;80.06
14790;BME280;7486;51.010;10.366;2023-01-26T05:30:36;98793.47;;;-4.09;80.82
14790;BME280;7486;51.010;10.366;2023-01-26T05:33:04;98793.53;;;-4.23;80.61
14790;BME280;7486;51.010;10.366;2023-01-26T05:35:33;98795.94;;;-4.07;81.18
14790;BME280;7486;51.010;10.366;2023-01-26T05:38:01;98794.66;;;-4.14;80.38
14790;BME280;7486;51.010;10.366;2023-01-26T05:40:31;98800.09;;;-4.05;80.72
14790;BME280;7486;51.010;10.366;2023-01-26T05:42:58;98778.56;;;-4.05;80.93
14790;BME280;7486;51.010;10.366;2023-01-26T05:45:57;98804.97;;;-4.39;80.33
14790;BME280;7486;51.010;10.366;2023-01-26T05:48:24;98802.94;;;-4.49;81.54
14790;BME280;7486;51.010;10.366;2023-01-26T05:50:54;98810.84;;;-4.64;81.65
14790;BME280;7486;51.010;10.366;2023-01-26T05:53:21;98799.34;;;-4.46;82.31
14790;BME280;7486;51.010;10.366;2023-01-26T05:55:49;98805.22;;;-4.17;82.20
14790;BME280;7486;51.010;10.366;2023-01-26T05:58:19;98803.50;;;-4.04;81.21
14790;BME280;7486;51.010;10.366;2023-01-26T06:00:47;98816.25;;;-4.01;81.49
14790;BME280;7486;51.010;10.366;2023-01-26T06:03:20;98811.44;;;-4.07;79.97
14790;BME280;7486;51.010;10.366;2023-01-26T06:05:53;98812.28;;;-4.07;80.68
14790;BME280;7486;51.010;10.366;2023-01-26T06:08:29;98809.75;;;-4.21;79.70
14790;BME280;7486;51.010;10.366;2023-01-26T06:11:16;98819.97;;;-4.59;79.82
14790;BME280;7486;51.010;10.366;2023-01-26T06:13:55;98814.78;;;-5.00;82.30
14790;BME280;7486;51.010;10.366;2023-01-26T06:16:25;98819.63;;;-4.67;81.69
14790;BME280;7486;51.010;10.366;2023-01-26T06:18:53;98814.44;;;-4.53;81.26
14790;BME280;7486;51.010;10.366;2023-01-26T06:21:20;98800.97;;;-4.72;80.71
14790;BME280;7486;51.010;10.366;2023-01-26T06:23:47;98809.25;;;-4.93;81.41
14790;BME280;7486;51.010;10.366;2023-01-26T06:26:14;98817.81;;;-4.93;81.73
14790;BME280;7486;51.010;10.366;2023-01-26T06:28:41;98821.56;;;-4.70;80.50
14790;BME280;7486;51.010;10.366;2023-01-26T06:31:08;98760.31;;;-4.82;80.54
14790;BME280;7486;51.010;10.366;2023-01-26T06:33:37;98820.75;;;-4.85;80.03
14790;BME280;7486;51.010;10.366;2023-01-26T06:36:14;98815.06;;;-5.04;80.90
14790;BME280;7486;51.010;10.366;2023-01-26T06:38:47;98816.63;;;-5.30;82.31
14790;BME280;7486;51.010;10.366;2023-01-26T06:41:15;98754.59;;;-5.71;82.83
14790;BME280;7486;51.010;10.366;2023-01-26T06:43:45;98822.59;;;-5.58;83.78
14790;BME280;7486;51.010;10.366;2023-01-26T06:46:12;98818.09;;;-5.54;83.04
14790;BME280;7486;51.010;10.366;2023-01-26T06:48:39;98798.84;;;-5.34;82.86
14790;BME280;7486;51.010;10.366;2023-01-26T06:53:53;98814.44;;;-4.53;81.65
14790;BME280;7486;51.010;10.366;2023-01-26T06:56:26;98820.78;;;-4.31;80.16
14790;BME280;7486;51.010;10.366;2023-01-26T06:59:13;98802.56;;;-4.42;79.12
14790;BME280;7486;51.010;10.366;2023-01-26T07:02:18;98804.97;;;-4.39;80.07
14790;BME280;7486;51.010;10.366;2023-01-26T07:04:47;98800.47;;;-4.11;79.10
14790;BME280;7486;51.010;10.366;2023-01-26T07:07:13;98763.91;;;-4.31;77.30
14790;BME280;7486;51.010;10.366;2023-01-26T07:09:40;98789.53;;;-4.02;77.05
14790;BME280;7486;51.010;10.366;2023-01-26T07:12:07;98820.38;;;-3.99;76.83
14790;BME280;7486;51.010;10.366;2023-01-26T07:14:34;98825.84;;;-4.03;76.84
14790;BME280;7486;51.010;10.366;2023-01-26T07:17:01;98829.50;;;-3.93;76.84
14790;BME280;7486;51.010;10.366;2023-01-26T07:19:27;98793.16;;;-4.04;76.94
14790;BME280;7486;51.010;10.366;2023-01-26T07:21:54;98808.84;;;-3.80;77.02
14790;BME280;7486;51.010;10.366;2023-01-26T07:24:21;98825.50;;;-3.72;76.67
14790;BME280;7486;51.010;10.366;2023-01-26T07:26:48;98804.88;;;-3.86;77.08
14790;BME280;7486;51.010;10.366;2023-01-26T07:29:14;98815.56;;;-3.78;76.57
14790;BME280;7486;51.010;10.366;2023-01-26T07:31:41;98825.84;;;-4.03;77.23
14790;BME280;7486;51.010;10.366;2023-01-26T07:34:08;98833.25;;;-3.84;77.63
14790;BME280;7486;51.010;10.366;2023-01-26T07:36:35;98834.41;;;-3.76;77.69
14790;BME280;7486;51.010;10.366;2023-01-26T07:39:02;98811.31;;;-3.91;77.29
14790;BME280;7486;51.010;10.366;2023-01-26T07:41:28;98815.00;;;-3.95;77.38
14790;BME280;7486;51.010;10.366;2023-01-26T07:43:56;98837.41;;;-3.82;78.02
14790;BME280;7486;51.010;10.366;2023-01-26T07:46:22;98840.53;;;-3.77;77.35
14790;BME280;7486;51.010;10.366;2023-01-26T07:48:50;98842.94;;;-4.01;78.07
14790;BME280;7486;51.010;10.366;2023-01-26T07:51:16;98847.34;;;-4.15;78.46
14790;BME280;7486;51.010;10.366;2023-01-26T07:53:43;98826.44;;;-4.25;78.79
14790;BME280;7486;51.010;10.366;2023-01-26T07:56:12;98851.44;;;-3.99;79.05
14790;BME280;7486;51.010;10.366;2023-01-26T07:58:39;98788.56;;;-4.26;78.84
14790;BME280;7486;51.010;10.366;2023-01-26T08:01:11;98798.59;;;-4.21;78.64
14790;BME280;7486;51.010;10.366;2023-01-26T08:03:40;98841.53;;;-3.79;78.60
14790;BME280;7486;51.010;10.366;2023-01-26T08:06:07;98838.94;;;-3.79;78.60
14790;BME280;7486;51.010;10.366;2023-01-26T08:08:38;98785.69;;;-4.09;77.97
14790;BME280;7486;51.010;10.366;2023-01-26T08:11:05;98793.88;;;-4.02;78.01
14790;BME280;7486;51.010;10.366;2023-01-26T08:13:31;98835.94;;;-3.86;77.42
14790;BME280;7486;51.010;10.366;2023-01-26T08:16:09;98850.75;;;-3.75;78.34
14790;BME280;7486;51.010;10.366;2023-01-26T08:18:46;98857.81;;;-4.04;77.89
14790;BME280;7486;51.010;10.366;2023-01-26T08:21:15;98850.16;;;-4.18;78.59
14790;BME280;7486;51.010;10.366;2023-01-26T08:23:46;98848.91;;;-4.39;78.93
14790;BME280;7486;51.010;10.366;2023-01-26T08:26:13;98833.41;;;-4.39;79.70
14790;BME280;7486;51.010;10.366;2023-01-26T08:28:40;98849.59;;;-4.50;78.72
14790;BME280;7486;51.010;10.366;2023-01-26T08:31:16;98839.63;;;-5.11;80.84
14790;BME280;7486;51.010;10.366;2023-01-26T08:33:44;98858.06;;;-5.17;82.34
14790;BME280;7486;51.010;10.366;2023-01-26T08:36:13;98801.44;;;-5.34;81.92
14790;BME280;7486;51.010;10.366;2023-01-26T08:38:41;98858.59;;;-5.26;82.78
14790;BME280;7486;51.010;10.366;2023-01-26T08:41:08;98858.06;;;-5.31;83.14
14790;BME280;7486;51.010;10.366;2023-01-26T08:43:35;98846.06;;;-5.18;83.48
14790;BME280;7486;51.010;10.366;2023-01-26T08:46:03;98861.00;;;-5.09;83.39
14790;BME280;7486;51.010;10.366;2023-01-26T08:48:31;98833.63;;;-4.97;82.95
14790;BME280;7486;51.010;10.366;2023-01-26T08:50:59;98860.81;;;-4.78;82.96
14790;BME280;7486;51.010;10.366;2023-01-26T08:53:29;98854.41;;;-4.58;82.28
14790;BME280;7486;51.010;10.366;2023-01-26T08:55:56;98860.63;;;-4.75;81.37
14790;BME280;7486;51.010;10.366;2023-01-26T08:58:25;98857.22;;;-5.18;81.22
14790;BME280;7486;51.010;10.366;2023-01-26T09:00:53;98801.78;;;-5.98;83.15
14790;BME280;7486;51.010;10.366;2023-01-26T09:03:19;98865.97;;;-5.78;84.05
14790;BME280;7486;51.010;10.366;2023-01-26T09:05:46;98880.31;;;-5.88;85.07
14790;BME280;7486;51.010;10.366;2023-01-26T09:08:13;98879.56;;;-6.20;86.36
14790;BME280;7486;51.010;10.366;2023-01-26T09:10:40;98851.41;;;-6.09;86.21
14790;BME280;7486;51.010;10.366;2023-01-26T09:13:08;98874.19;;;-6.02;86.34
14790;BME280;7486;51.010;10.366;2023-01-26T09:15:36;98862.63;;;-5.51;86.38
14790;BME280;7486;51.010;10.366;2023-01-26T09:18:04;98864.31;;;-5.35;84.61
14790;BME280;7486;51.010;10.366;2023-01-26T09:20:30;98870.88;;;-5.16;84.54
14790;BME280;7486;51.010;10.366;2023-01-26T09:22:57;98878.59;;;-5.30;83.75
14790;BME280;7486;51.010;10.366;2023-01-26T09:25:24;98674.63;;;-6.43;83.39
14790;BME280;7486;51.010;10.366;2023-01-26T09:27:50;98880.75;;;-5.22;83.21
14790;BME280;7486;51.010;10.366;2023-01-26T09:30:17;98870.03;;;-5.30;82.33
14790;BME280;7486;51.010;10.366;2023-01-26T09:32:44;98849.69;;;-5.79;82.33
14790;BME280;7486;51.010;10.366;2023-01-26T09:35:11;98871.59;;;-5.72;82.23
14790;BME280;7486;51.010;10.366;2023-01-26T09:37:42;98867.28;;;-5.71;83.47
14790;BME280;7486;51.010;10.366;2023-01-26T09:40:20;98871.97;;;-5.48;84.35
14790;BME280;7486;51.010;10.366;2023-01-26T09:43:06;98865.81;;;-5.61;82.63
14790;BME280;7486;51.010;10.366;2023-01-26T09:45:43;98870.69;;;-5.71;83.15
14790;BME280;7486;51.010;10.366;2023-01-26T09:51:09;98865.25;;;-5.22;83.09
14790;BME280;7486;51.010;10.366;2023-01-26T09:53:44;98848.09;;;-5.52;81.95
14790;BME280;7486;51.010;10.366;2023-01-26T09:56:18;98870.88;;;-6.04;83.45
14790;BME280;7486;51.010;10.366;2023-01-26T10:01:41;98860.94;;;-5.66;83.04
14790;BME280;7486;51.010;10.366;2023-01-26T10:04:35;98865.47;;;-5.69;83.23
14790;BME280;7486;51.010;10.366;2023-01-26T10:07:13;98860.63;;;-5.45;82.73
14790;BME280;7486;51.010;10.366;2023-01-26T10:09:47;98868.41;;;-5.17;81.79
14790;BME280;7486;51.010;10.366;2023-01-26T10:12:22;98860.81;;;-5.06;79.83
14790;BME280;7486;51.010;10.366;2023-01-26T10:15:17;98855.78;;;-5.66;80.34
14790;BME280;7486;51.010;10.366;2023-01-26T10:17:51;98863.00;;;-5.42;80.91
14790;BME280;7486;51.010;10.366;2023-01-26T10:20:53;98858.78;;;-5.29;79.33
14790;BME280;7486;51.010;10.366;2023-01-26T10:23:30;98860.47;;;-5.72;79.32
14790;BME280;7486;51.010;10.366;2023-01-26T10:26:26;98849.91;;;-5.54;79.58
14790;BME280;7486;51.010;10.366;2023-01-26T10:28:51;98852.13;;;-5.33;80.19
14790;BME280;7486;51.010;10.366;2023-01-26T10:31:25;98850.84;;;-5.12;80.00
14790;BME280;7486;51.010;10.366;2023-01-26T10:33:54;98842.28;;;-4.98;79.04
14790;BME280;7486;51.010;10.366;2023-01-26T10:36:21;98839.94;;;-4.89;79.04
14790;BME280;7486;51.010;10.366;2023-01-26T10:38:50;98841.06;;;-4.93;78.54
14790;BME280;7486;51.010;10.366;2023-01-26T10:41:25;98842.28;;;-4.98;78.27
14790;BME280;7486;51.010;10.366;2023-01-26T10:43:57;98837.47;;;-4.90;78.11
14790;BME280;7486;51.010;10.366;2023-01-26T10:46:36;98842.13;;;-4.69;78.08
14790;BME280;7486;51.010;10.366;2023-01-26T10:51:35;98830.13;;;-4.56;76.31
14790;BME280;7486;51.010;10.366;2023-01-26T10:54:29;98830.69;;;-4.65;76.05
14790;BME280;7486;51.010;10.366;2023-01-26T10:57:01;98823.38;;;-5.13;77.04
14790;BME280;7486;51.010;10.366;2023-01-26T10:59:52;98825.22;;;-4.87;78.41
14790;BME280;7486;51.010;10.366;2023-01-26T11:02:26;98826.13;;;-4.88;78.02
14790;BME280;7486;51.010;10.366;2023-01-26T11:07:37;98818.53;;;-4.63;77.61
14790;BME280;7486;51.010;10.366;2023-01-26T11:10:20;98808.84;;;-4.46;77.23
14790;BME280;7486;51.010;10.366;2023-01-26T11:13:23;98808.53;;;-4.69;75.77
14790;BME280;7486;51.010;10.366;2023-01-26T11:16:00;98812.94;;;-4.97;76.15
14790;BME280;7486;51.010;10.366;2023-01-26T11:27:39;98807.31;;;-5.04;77.67
14790;BME280;7486;51.010;10.366;2023-01-26T11:30:50;98805.53;;;-4.89;75.21
14790;BME280;7486;51.010;10.366;2023-01-26T11:33:19;98805.94;;;-4.69;74.37
14790;BME280;7486;51.010;10.366;2023-01-26T11:38:35;98797.28;;;-5.23;77.63
14790;BME280;7486;51.010;10.366;2023-01-26T11:41:23;98790.66;;;-4.86;75.68
14790;BME280;7486;51.010;10.366;2023-01-26T11:46:35;98780.25;;;-4.58;72.22
14790;BME280;7486;51.010;10.366;2023-01-26T11:49:42;98774.91;;;-4.55;72.58
14790;BME280;7486;51.010;10.366;2023-01-26T12:00:41;98765.19;;;-4.51;73.16
14790;BME280;7486;51.010;10.366;2023-01-26T12:04:08;98738.13;;;-4.45;72.11
14790;BME280;7486;51.010;10.366;2023-01-26T12:06:22;98737.94;;;-4.42;72.30
14790;BME280;7486;51.010;10.366;2023-01-26T12:08:59;98751.22;;;-4.09;71.45
14790;BME280;7486;51.010;10.366;2023-01-26T12:11:33;98741.50;;;-4.18;70.58
14790;BME280;7486;51.010;10.366;2023-01-26T12:14:31;98737.97;;;-4.17;72.51
14790;BME280;7486;51.010;10.366;2023-01-26T12:22:36;98726.91;;;-4.07;71.74
14790;BME280;7486;51.010;10.366;2023-01-26T12:25:27;98720.63;;;-4.03;71.83
14790;BME280;7486;51.010;10.366;2023-01-26T12:32:52;98699.78;;;-4.26;73.54
14790;BME280;7486;51.010;10.366;2023-01-26T12:35:34;98720.00;;;-4.06;75.34
14790;BME280;7486;51.010;10.366;2023-01-26T12:38:14;98725.50;;;-3.85;73.61
14790;BME280;7486;51.010;10.366;2023-01-26T12:41:05;98716.25;;;-3.89;74.12
14790;BME280;7486;51.010;10.366;2023-01-26T12:43:42;98717.31;;;-4.05;75.03
14790;BME280;7486;51.010;10.366;2023-01-26T12:46:14;98714.63;;;-3.90;75.43
14790;BME280;7486;51.010;10.366;2023-01-26T12:48:43;98717.31;;;-3.54;73.91
14790;BME280;7486;51.010;10.366;2023-01-26T12:51:32;98709.94;;;-3.48;72.64
14790;BME280;7486;51.010;10.366;2023-01-26T12:54:18;98705.06;;;-3.52;72.65
14790;BME280;7486;51.010;10.366;2023-01-26T12:56:53;98691.03;;;-3.99;74.29
14790;BME280;7486;51.010;10.366;2023-01-26T12:59:40;98706.22;;;-4.19;76.14
14790;BME280;7486;51.010;10.366;2023-01-26T13:04:44;98701.47;;;-4.25;77.27
14790;BME280;7486;51.010;10.366;2023-01-26T13:07:30;98700.28;;;-4.21;77.14
14790;BME280;7486;51.010;10.366;2023-01-26T13:12:47;98704.47;;;-4.06;77.94
14790;BME280;7486;51.010;10.366;2023-01-26T13:15:16;98708.63;;;-3.91;77.78
14790;BME280;7486;51.010;10.366;2023-01-26T13:17:50;98706.44;;;-3.97;76.97
14790;BME280;7486;51.010;10.366;2023-01-26T13:22:54;98708.59;;;-4.04;77.25
14790;BME280;7486;51.010;10.366;2023-01-26T13:25:30;98709.56;;;-4.05;77.99
14790;BME280;7486;51.010;10.366;2023-01-26T13:28:02;98692.44;;;-4.20;77.23
14790;BME280;7486;51.010;10.366;2023-01-26T13:30:42;98707.38;;;-3.98;78.08
14790;BME280;7486;51.010;10.366;2023-01-26T13:33:22;98705.72;;;-4.12;77.20
14790;BME280;7486;51.010;10.366;2023-01-26T13:35:51;98698.94;;;-4.39;78.27
14790;BME280;7486;51.010;10.366;2023-01-26T13:38:35;98681.31;;;-4.60;79.37
14790;BME280;7486;51.010;10.366;2023-01-26T13:41:17;98709.38;;;-4.41;79.31
14790;BME280;7486;51.010;10.366;2023-01-26T13:43:49;98709.34;;;-4.54;79.61
14790;BME280;7486;51.010;10.366;2023-01-26T13:46:22;98707.91;;;-4.45;79.87
14790;BME280;7486;51.010;10.366;2023-01-26T13:48:52;98706.78;;;-4.41;79.28
14790;BME280;7486;51.010;10.366;2023-01-26T13:51:31;98709.72;;;-4.33;79.39
14790;BME280;7486;51.010;10.366;2023-01-26T13:56:37;98700.09;;;-4.31;80.13
14790;BME280;7486;51.010;10.366;2023-01-26T14:01:32;98705.88;;;-4.27;79.77
14790;BME280;7486;51.010;10.366;2023-01-26T14:04:06;98691.41;;;-4.17;79.42
14790;BME280;7486;51.010;10.366;2023-01-26T14:06:34;98716.38;;;-3.91;79.23
14790;BME280;7486;51.010;10.366;2023-01-26T14:09:03;98697.75;;;-3.96;77.58
14790;BME280;7486;51.010;10.366;2023-01-26T14:11:32;98718.56;;;-3.85;77.55
14790;BME280;7486;51.010;10.366;2023-01-26T14:14:00;98715.03;;;-4.09;78.23
14790;BME280;7486;51.010;10.366;2023-01-26T14:19:12;98712.03;;;-4.03;78.64
14790;BME280;7486;51.010;10.366;2023-01-26T14:21:46;98721.78;;;-3.94;78.16
14790;BME280;7486;51.010;10.366;2023-01-26T14:24:13;98725.38;;;-3.97;77.42
14790;BME280;7486;51.010;10.366;2023-01-26T14:26:40;98729.28;;;-4.04;77.65
14790;BME280;7486;51.010;10.366;2023-01-26T14:29:18;98709.72;;;-4.20;78.50